SBSPSBLO

Guest
Details From SBSP - Sao Paulo Congonhas
To SBLO - Londrina
Flight Number -
Tags decoded
Created
Modified
Stats Distance 288 nm / 533 km
Max Altitude 0 ft / 0 m
Waypoints 4
Social Downloads 3
Likes 0
Share VATSIM

Download

Looking for another format? Having issues loading an existing format? Contact us
Advertisement - Login to hide

Notes

Requested: SBSP SCB BRU SBLO

Route

SBSP SCB BRU SBLO

ID Type Via Altitude Latitude Longitude Leg Dist Tot Dist Heading (true) Name
O SBSP APT - 0 ft / 0 m -23.62669˚ -46.65538˚ - 0 nm - Sao Paulo Congonhas
SCB VOR - 0 ft / 0 m -23.50700˚ -47.37817˚ 40 nm 40 nm 280° / 280° SOROCABA VOR-DME
BRU NDB - 0 ft / 0 m -22.31400˚ -49.10717˚ 119 nm 159 nm 306° / 307° BAURU NDB
O SBLO APT - 0 ft / 0 m -23.33362˚ -51.13007˚ 127 nm 287 nm 241° / 242° Londrina

Altitude Profile

Advertisement - Login to hide

Weather


0- 5 10 15 20 25 30 35+ Temperature / ° C

Clouds and Precipitation
Forecast for 2018-05-21 06:00 UTC. Updated 3 hours ago

Ground ~20,000 ft ~40,000 ft Winds

SBSP

Details ICAO SBSP (CGH)
Name Sao Paulo Congonhas
Region Brazil
Timezone America/Sao_Paulo (UTC-3.0)
Stats Elevation 2,631 ft / 802 m (AMSL)
Location -23.626693° -46.655377°
Runways 2
Magnetic Variation 21.347° W

METAR

SBSP 210700Z AUTO 33006KT 9999 NCD 10/06 Q1018

Decode

TAF

TAF SBSP 210225Z 2106/2206 30003KT CAVOK TN08/2108Z TX20/2117Z BECMG 2108/2110 04003KT BECMG 2113/2115 27005KT FEW035 BECMG 2120/2122 20005KT CAVOK BECMG 2200/2202 17004KT RMK PGL

Decode

Departure Runways

ID Width Length Bearing (true) Bearing (mag) Surface Threshold Offset Overrun Length
17L 147 ft / 45 m 4,726 ft / 1,441 m 147.28° 168.63° Asphalt 0 ft / 0 m 220 ft / 67 m
17R 147 ft / 45 m 6,406 ft / 1,953 m 147.39° 168.74° Asphalt 413 ft / 126 m 0 ft / 0 m
35L 147 ft / 45 m 6,406 ft / 1,953 m 327.38° 348.73° Asphalt 200 ft / 61 m 0 ft / 0 m
35R 147 ft / 45 m 4,726 ft / 1,441 m 327.28° 348.63° Asphalt 0 ft / 0 m 0 ft / 0 m

SBLO

Details ICAO SBLO (LDB)
Name Londrina
Region Brazil
Timezone America/Sao_Paulo (UTC-3.0)
Stats Elevation 1,867 ft / 569 m (AMSL)
Location -23.333624° -51.130072°
Runways 1
Magnetic Variation 19.138° W

METAR

SBLO 210700Z 00000KT CAVOK 08/06 Q1017

Decode

TAF

TAF SBLO 200415Z 2106/2118 23003KT CAVOK TN08/2108Z TN20/2117Z BECMG 2112/2114 04006KT 9999 FEW030 RMK PCX

Decode

Destination Runways

ID Width Length Bearing (true) Bearing (mag) Surface Threshold Offset Overrun Length
13 148 ft / 45 m 6,926 ft / 2,111 m 110.29° 129.43° Asphalt 975 ft / 297 m 0 ft / 0 m
31 148 ft / 45 m 6,926 ft / 2,111 m 290.28° 309.42° Asphalt 0 ft / 0 m 100 ft / 30 m

Popular Alternatives